sensor_id;sensor_type;location;lat;lon;timestamp;pressure;altitude;pressure_sealevel;temperature;humidity
19096;BME280;9680;52.520;13.332;2023-07-13T00:01:38;100994.63;;;20.22;54.58
19096;BME280;9680;52.520;13.332;2023-07-13T00:04:05;100995.06;;;20.16;54.44
19096;BME280;9680;52.520;13.332;2023-07-13T00:06:32;100989.03;;;20.14;54.69
19096;BME280;9680;52.520;13.332;2023-07-13T00:09:02;100993.72;;;20.10;54.52
19096;BME280;9680;52.520;13.332;2023-07-13T00:11:29;100983.63;;;20.04;54.66
19096;BME280;9680;52.520;13.332;2023-07-13T00:13:56;100983.22;;;19.97;54.95
19096;BME280;9680;52.520;13.332;2023-07-13T00:16:22;100985.34;;;19.92;55.34
19096;BME280;9680;52.520;13.332;2023-07-13T00:18:49;101002.91;;;19.93;55.24
19096;BME280;9680;52.520;13.332;2023-07-13T00:21:16;100998.56;;;19.92;55.13
19096;BME280;9680;52.520;13.332;2023-07-13T00:23:42;100995.94;;;19.92;55.28
19096;BME280;9680;52.520;13.332;2023-07-13T00:26:11;100999.53;;;19.91;55.44
19096;BME280;9680;52.520;13.332;2023-07-13T00:28:39;101004.06;;;19.89;55.24
19096;BME280;9680;52.520;13.332;2023-07-13T00:31:07;101013.03;;;19.86;55.30
19096;BME280;9680;52.520;13.332;2023-07-13T00:33:34;101008.19;;;19.80;55.46
19096;BME280;9680;52.520;13.332;2023-07-13T00:36:01;101014.56;;;19.77;55.58
19096;BME280;9680;52.520;13.332;2023-07-13T00:38:28;101004.22;;;19.74;55.68
19096;BME280;9680;52.520;13.332;2023-07-13T00:40:55;100997.25;;;19.73;55.86
19096;BME280;9680;52.520;13.332;2023-07-13T00:43:27;100989.41;;;19.72;55.66
19096;BME280;9680;52.520;13.332;2023-07-13T00:46:20;100996.84;;;19.67;56.14
19096;BME280;9680;52.520;13.332;2023-07-13T00:48:49;100991.78;;;19.63;55.88
19096;BME280;9680;52.520;13.332;2023-07-13T00:51:21;100998.97;;;19.61;55.97
19096;BME280;9680;52.520;13.332;2023-07-13T00:53:49;100993.81;;;19.60;56.20
19096;BME280;9680;52.520;13.332;2023-07-13T00:56:16;100987.59;;;19.61;56.40
19096;BME280;9680;52.520;13.332;2023-07-13T00:58:45;100995.38;;;19.62;56.58
19096;BME280;9680;52.520;13.332;2023-07-13T01:01:12;100995.06;;;19.67;56.59
19096;BME280;9680;52.520;13.332;2023-07-13T01:03:40;100987.00;;;19.69;56.68
19096;BME280;9680;52.520;13.332;2023-07-13T01:06:07;101001.91;;;19.70;56.54
19096;BME280;9680;52.520;13.332;2023-07-13T01:08:34;101006.47;;;19.68;56.65
19096;BME280;9680;52.520;13.332;2023-07-13T01:11:00;101003.94;;;19.66;56.36
19096;BME280;9680;52.520;13.332;2023-07-13T01:13:27;101000.06;;;19.59;56.52
19096;BME280;9680;52.520;13.332;2023-07-13T01:15:58;101001.97;;;19.57;56.74
19096;BME280;9680;52.520;13.332;2023-07-13T01:18:28;101003.03;;;19.54;56.57
19096;BME280;9680;52.520;13.332;2023-07-13T01:20:59;101004.72;;;19.55;57.15
19096;BME280;9680;52.520;13.332;2023-07-13T01:23:26;101003.66;;;19.58;57.10
19096;BME280;9680;52.520;13.332;2023-07-13T01:25:55;101007.75;;;19.62;57.23
19096;BME280;9680;52.520;13.332;2023-07-13T01:28:23;101017.16;;;19.66;56.73
19096;BME280;9680;52.520;13.332;2023-07-13T01:30:53;101009.09;;;19.68;56.73
19096;BME280;9680;52.520;13.332;2023-07-13T01:33:20;101006.34;;;19.69;57.04
19096;BME280;9680;52.520;13.332;2023-07-13T01:35:47;101003.72;;;19.69;56.81
19096;BME280;9680;52.520;13.332;2023-07-13T01:38:19;100997.69;;;19.67;56.93
19096;BME280;9680;52.520;13.332;2023-07-13T01:40:47;100998.53;;;19.68;57.06
19096;BME280;9680;52.520;13.332;2023-07-13T01:43:13;101001.31;;;19.66;57.27
19096;BME280;9680;52.520;13.332;2023-07-13T01:45:40;101001.63;;;19.61;57.30
19096;BME280;9680;52.520;13.332;2023-07-13T01:48:09;100999.19;;;19.58;57.65
19096;BME280;9680;52.520;13.332;2023-07-13T01:50:36;100994.78;;;19.59;57.73
19096;BME280;9680;52.520;13.332;2023-07-13T01:53:03;100996.69;;;19.57;57.54
19096;BME280;9680;52.520;13.332;2023-07-13T01:55:32;100994.22;;;19.54;57.65
19096;BME280;9680;52.520;13.332;2023-07-13T01:57:58;100993.72;;;19.48;57.87
19096;BME280;9680;52.520;13.332;2023-07-13T02:00:25;100993.94;;;19.45;58.20
19096;BME280;9680;52.520;13.332;2023-07-13T02:02:53;101003.91;;;19.42;58.25
19096;BME280;9680;52.520;13.332;2023-07-13T02:05:20;101009.06;;;19.43;58.43
19096;BME280;9680;52.520;13.332;2023-07-13T02:07:48;101008.09;;;19.44;58.46
19096;BME280;9680;52.520;13.332;2023-07-13T02:10:14;101000.31;;;19.43;58.21
19096;BME280;9680;52.520;13.332;2023-07-13T02:12:43;101007.50;;;19.41;58.50
19096;BME280;9680;52.520;13.332;2023-07-13T02:15:10;101000.31;;;19.43;58.91
19096;BME280;9680;52.520;13.332;2023-07-13T02:17:37;100997.53;;;19.44;58.62
19096;BME280;9680;52.520;13.332;2023-07-13T02:20:05;100993.94;;;19.45;58.70
19096;BME280;9680;52.520;13.332;2023-07-13T02:22:31;101001.03;;;19.45;58.93
19096;BME280;9680;52.520;13.332;2023-07-13T02:24:58;101003.03;;;19.41;58.82
19096;BME280;9680;52.520;13.332;2023-07-13T02:27:25;101000.97;;;19.33;59.13
19096;BME280;9680;52.520;13.332;2023-07-13T02:29:53;100991.88;;;19.25;59.32
19096;BME280;9680;52.520;13.332;2023-07-13T02:32:20;100990.63;;;19.17;59.42
19096;BME280;9680;52.520;13.332;2023-07-13T02:34:47;100989.38;;;19.10;59.70
19096;BME280;9680;52.520;13.332;2023-07-13T02:37:14;100982.63;;;19.06;59.56
19096;BME280;9680;52.520;13.332;2023-07-13T02:39:40;100988.13;;;19.03;59.46
19096;BME280;9680;52.520;13.332;2023-07-13T02:42:07;100982.13;;;19.01;59.58
19096;BME280;9680;52.520;13.332;2023-07-13T02:44:35;100986.75;;;18.97;59.51
19096;BME280;9680;52.520;13.332;2023-07-13T02:47:03;100991.72;;;19.02;59.39
19096;BME280;9680;52.520;13.332;2023-07-13T02:49:30;101003.22;;;19.01;59.70
19096;BME280;9680;52.520;13.332;2023-07-13T02:51:57;100997.81;;;19.02;60.05
19096;BME280;9680;52.520;13.332;2023-07-13T02:54:25;100996.25;;;19.00;60.03
19096;BME280;9680;52.520;13.332;2023-07-13T02:56:51;101006.09;;;18.98;60.25
19096;BME280;9680;52.520;13.332;2023-07-13T02:59:18;101014.84;;;18.98;60.68
19096;BME280;9680;52.520;13.332;2023-07-13T03:01:45;101019.06;;;19.01;60.55
19096;BME280;9680;52.520;13.332;2023-07-13T03:04:13;101022.31;;;19.04;60.29
19096;BME280;9680;52.520;13.332;2023-07-13T03:06:40;101027.00;;;19.01;60.23
19096;BME280;9680;52.520;13.332;2023-07-13T03:09:08;101030.75;;;18.97;60.21
19096;BME280;9680;52.520;13.332;2023-07-13T03:11:38;101027.59;;;18.91;59.98
19096;BME280;9680;52.520;13.332;2023-07-13T03:14:15;101027.91;;;18.87;60.29
19096;BME280;9680;52.520;13.332;2023-07-13T03:16:43;101029.88;;;18.83;60.31
19096;BME280;9680;52.520;13.332;2023-07-13T03:19:10;101033.47;;;18.82;60.34
19096;BME280;9680;52.520;13.332;2023-07-13T03:21:38;101039.72;;;18.81;60.37
19096;BME280;9680;52.520;13.332;2023-07-13T03:24:05;101037.06;;;18.81;60.69
19096;BME280;9680;52.520;13.332;2023-07-13T03:26:32;101043.00;;;18.85;61.06
19096;BME280;9680;52.520;13.332;2023-07-13T03:28:58;101040.25;;;18.86;61.42
19096;BME280;9680;52.520;13.332;2023-07-13T03:31:27;101040.06;;;18.89;61.00
19096;BME280;9680;52.520;13.332;2023-07-13T03:33:55;101046.06;;;18.91;61.20
19096;BME280;9680;52.520;13.332;2023-07-13T03:36:25;101048.72;;;18.91;61.48
19096;BME280;9680;52.520;13.332;2023-07-13T03:41:58;101055.47;;;18.96;61.12
19096;BME280;9680;52.520;13.332;2023-07-13T03:44:27;101055.56;;;18.94;61.13
19096;BME280;9680;52.520;13.332;2023-07-13T03:46:56;101050.97;;;18.98;61.23
19096;BME280;9680;52.520;13.332;2023-07-13T03:49:22;101061.63;;;19.09;61.10
19096;BME280;9680;52.520;13.332;2023-07-13T03:51:49;101056.34;;;19.09;61.26
19096;BME280;9680;52.520;13.332;2023-07-13T03:54:17;101061.91;;;19.04;61.05
19096;BME280;9680;52.520;13.332;2023-07-13T03:56:44;101048.72;;;19.04;61.43
19096;BME280;9680;52.520;13.332;2023-07-13T03:59:11;101058.34;;;19.05;61.20
19096;BME280;9680;52.520;13.332;2023-07-13T04:01:38;101062.03;;;19.03;61.06
19096;BME280;9680;52.520;13.332;2023-07-13T04:04:05;101059.19;;;19.06;61.58
19096;BME280;9680;52.520;13.332;2023-07-13T04:06:32;101061.72;;;19.08;61.38
19096;BME280;9680;52.520;13.332;2023-07-13T04:09:00;101063.75;;;19.04;61.58
19096;BME280;9680;52.520;13.332;2023-07-13T04:11:31;101059.63;;;19.00;61.20
19096;BME280;9680;52.520;13.332;2023-07-13T04:13:59;101064.78;;;19.01;61.16
19096;BME280;9680;52.520;13.332;2023-07-13T04:16:26;101066.59;;;19.01;61.35
19096;BME280;9680;52.520;13.332;2023-07-13T04:18:54;101068.16;;;19.03;61.49
19096;BME280;9680;52.520;13.332;2023-07-13T04:21:25;101067.72;;;19.10;61.08
19096;BME280;9680;52.520;13.332;2023-07-13T04:23:52;101069.63;;;19.08;61.34
19096;BME280;9680;52.520;13.332;2023-07-13T04:26:18;101067.84;;;19.08;61.01
19096;BME280;9680;52.520;13.332;2023-07-13T04:28:47;101072.06;;;19.11;61.26
19096;BME280;9680;52.520;13.332;2023-07-13T04:31:14;101073.53;;;19.15;61.01
19096;BME280;9680;52.520;13.332;2023-07-13T04:33:41;101071.84;;;19.27;61.03
19096;BME280;9680;52.520;13.332;2023-07-13T04:36:08;101074.13;;;19.57;60.73
19096;BME280;9680;52.520;13.332;2023-07-13T04:38:36;101076.75;;;19.70;59.87
19096;BME280;9680;52.520;13.332;2023-07-13T04:41:05;101077.19;;;19.64;59.96
19096;BME280;9680;52.520;13.332;2023-07-13T04:43:33;101078.69;;;19.55;59.68
19096;BME280;9680;52.520;13.332;2023-07-13T04:46:05;101088.72;;;19.50;60.37
19096;BME280;9680;52.520;13.332;2023-07-13T04:48:32;101096.13;;;19.45;60.17
19096;BME280;9680;52.520;13.332;2023-07-13T04:50:59;101092.25;;;19.38;60.50
19096;BME280;9680;52.520;13.332;2023-07-13T04:53:28;101091.59;;;19.34;60.43
19096;BME280;9680;52.520;13.332;2023-07-13T04:55:54;101090.66;;;19.35;61.02
19096;BME280;9680;52.520;13.332;2023-07-13T04:58:21;101092.97;;;19.40;61.00
19096;BME280;9680;52.520;13.332;2023-07-13T05:00:48;101088.75;;;19.37;61.29
19096;BME280;9680;52.520;13.332;2023-07-13T05:03:16;101085.28;;;19.37;61.24
19096;BME280;9680;52.520;13.332;2023-07-13T05:05:43;101093.28;;;19.35;61.34
19096;BME280;9680;52.520;13.332;2023-07-13T05:08:20;101087.25;;;19.33;61.44
19096;BME280;9680;52.520;13.332;2023-07-13T05:10:47;101094.75;;;19.39;61.50
19096;BME280;9680;52.520;13.332;2023-07-13T05:13:13;101103.19;;;19.44;61.58
19096;BME280;9680;52.520;13.332;2023-07-13T05:15:40;101102.56;;;19.54;61.41
19096;BME280;9680;52.520;13.332;2023-07-13T05:18:07;101099.50;;;19.60;60.82
19096;BME280;9680;52.520;13.332;2023-07-13T05:20:35;101093.28;;;19.61;60.94
19096;BME280;9680;52.520;13.332;2023-07-13T05:23:01;101099.16;;;19.64;61.34
19096;BME280;9680;52.520;13.332;2023-07-13T05:25:28;101105.47;;;19.75;61.03
19096;BME280;9680;52.520;13.332;2023-07-13T05:27:55;101111.06;;;19.83;60.70
19096;BME280;9680;52.520;13.332;2023-07-13T05:30:21;101105.47;;;19.88;60.87
19096;BME280;9680;52.520;13.332;2023-07-13T05:32:48;101103.03;;;19.98;60.68
19096;BME280;9680;52.520;13.332;2023-07-13T05:35:15;101112.59;;;20.12;60.26
19096;BME280;9680;52.520;13.332;2023-07-13T05:37:43;101115.25;;;20.12;59.70
19096;BME280;9680;52.520;13.332;2023-07-13T05:40:10;101117.28;;;20.08;59.64
19096;BME280;9680;52.520;13.332;2023-07-13T05:42:37;101116.88;;;20.01;59.88
19096;BME280;9680;52.520;13.332;2023-07-13T05:45:04;101113.91;;;20.06;60.10
19096;BME280;9680;52.520;13.332;2023-07-13T05:47:31;101111.72;;;20.24;60.17
19096;BME280;9680;52.520;13.332;2023-07-13T05:49:57;101113.09;;;20.41;59.63
19096;BME280;9680;52.520;13.332;2023-07-13T05:52:24;101117.06;;;20.60;59.20
19096;BME280;9680;52.520;13.332;2023-07-13T05:54:52;101125.03;;;20.71;58.61
19096;BME280;9680;52.520;13.332;2023-07-13T05:57:19;101120.53;;;20.85;58.14
19096;BME280;9680;52.520;13.332;2023-07-13T05:59:46;101120.22;;;21.01;57.85
19096;BME280;9680;52.520;13.332;2023-07-13T06:02:13;101125.91;;;21.30;57.33
19096;BME280;9680;52.520;13.332;2023-07-13T06:04:40;101119.28;;;21.59;56.60
19096;BME280;9680;52.520;13.332;2023-07-13T06:07:07;101118.56;;;21.79;56.02
19096;BME280;9680;52.520;13.332;2023-07-13T06:09:34;101108.56;;;21.94;55.07
19096;BME280;9680;52.520;13.332;2023-07-13T06:12:04;101112.94;;;23.24;53.87
19096;BME280;9680;52.520;13.332;2023-07-13T06:14:31;101109.63;;;24.24;51.01
19096;BME280;9680;52.520;13.332;2023-07-13T06:16:58;101098.81;;;24.06;49.69
19096;BME280;9680;52.520;13.332;2023-07-13T06:19:24;101103.72;;;23.60;49.57
19096;BME280;9680;52.520;13.332;2023-07-13T06:21:51;101104.44;;;23.09;50.65
19096;BME280;9680;52.520;13.332;2023-07-13T06:24:18;101102.25;;;22.72;51.40
19096;BME280;9680;52.520;13.332;2023-07-13T06:26:44;101101.16;;;22.53;52.04
19096;BME280;9680;52.520;13.332;2023-07-13T06:29:12;101100.19;;;22.43;52.27
19096;BME280;9680;52.520;13.332;2023-07-13T06:31:39;101104.81;;;22.30;52.59
19096;BME280;9680;52.520;13.332;2023-07-13T06:34:06;101103.78;;;22.21;52.78
19096;BME280;9680;52.520;13.332;2023-07-13T06:36:33;101106.34;;;22.11;53.04
19096;BME280;9680;52.520;13.332;2023-07-13T06:39:01;101107.19;;;22.00;53.62
19096;BME280;9680;52.520;13.332;2023-07-13T06:41:28;101101.19;;;21.98;53.74
19096;BME280;9680;52.520;13.332;2023-07-13T06:43:57;101105.97;;;22.04;53.74
19096;BME280;9680;52.520;13.332;2023-07-13T06:46:25;101106.47;;;21.98;53.67
19096;BME280;9680;52.520;13.332;2023-07-13T06:48:52;101102.25;;;22.07;53.86
19096;BME280;9680;52.520;13.332;2023-07-13T06:51:19;101106.31;;;22.22;53.50
19096;BME280;9680;52.520;13.332;2023-07-13T06:53:45;101093.91;;;22.44;53.22
19096;BME280;9680;52.520;13.332;2023-07-13T06:56:12;101095.44;;;22.58;52.50
19096;BME280;9680;52.520;13.332;2023-07-13T06:58:39;101099.72;;;22.71;52.19
19096;BME280;9680;52.520;13.332;2023-07-13T07:01:06;101093.25;;;22.84;51.74
19096;BME280;9680;52.520;13.332;2023-07-13T07:03:34;101095.97;;;22.94;51.38
19096;BME280;9680;52.520;13.332;2023-07-13T07:06:03;101093.06;;;22.97;50.25
19096;BME280;9680;52.520;13.332;2023-07-13T07:08:34;101091.38;;;22.96;49.68
19096;BME280;9680;52.520;13.332;2023-07-13T07:11:01;101095.28;;;22.92;49.68
19096;BME280;9680;52.520;13.332;2023-07-13T07:13:28;101093.00;;;22.88;49.59
19096;BME280;9680;52.520;13.332;2023-07-13T07:15:55;101097.66;;;22.95;49.77
19096;BME280;9680;52.520;13.332;2023-07-13T07:18:22;101097.94;;;22.92;49.30
19096;BME280;9680;52.520;13.332;2023-07-13T07:20:50;101101.81;;;22.88;49.45
19096;BME280;9680;52.520;13.332;2023-07-13T07:23:17;101102.19;;;22.83;49.86
19096;BME280;9680;52.520;13.332;2023-07-13T07:25:44;101105.19;;;22.90;49.36
19096;BME280;9680;52.520;13.332;2023-07-13T07:28:11;101111.69;;;22.86;49.22
19096;BME280;9680;52.520;13.332;2023-07-13T07:30:41;101114.56;;;22.73;49.28
19096;BME280;9680;52.520;13.332;2023-07-13T07:33:08;101118.31;;;22.71;49.79
19096;BME280;9680;52.520;13.332;2023-07-13T07:35:35;101112.69;;;22.64;49.41
19096;BME280;9680;52.520;13.332;2023-07-13T07:38:03;101112.63;;;22.75;49.23
19096;BME280;9680;52.520;13.332;2023-07-13T07:40:30;101107.84;;;22.90;49.24
19096;BME280;9680;52.520;13.332;2023-07-13T07:42:57;101111.75;;;23.17;48.83
19096;BME280;9680;52.520;13.332;2023-07-13T07:45:23;101109.81;;;23.50;48.29
19096;BME280;9680;52.520;13.332;2023-07-13T07:47:50;101109.78;;;23.81;47.28
19096;BME280;9680;52.520;13.332;2023-07-13T07:50:17;101115.44;;;23.98;46.68
19096;BME280;9680;52.520;13.332;2023-07-13T07:52:45;101109.47;;;24.06;46.10
19096;BME280;9680;52.520;13.332;2023-07-13T07:55:13;101118.56;;;24.13;45.31
19096;BME280;9680;52.520;13.332;2023-07-13T07:57:40;101126.53;;;24.03;45.26
19096;BME280;9680;52.520;13.332;2023-07-13T08:00:07;101120.22;;;24.04;45.46
19096;BME280;9680;52.520;13.332;2023-07-13T08:02:39;101117.72;;;24.22;45.75
19096;BME280;9680;52.520;13.332;2023-07-13T08:05:07;101121.38;;;24.41;44.12
19096;BME280;9680;52.520;13.332;2023-07-13T08:07:34;101123.19;;;24.50;44.77
19096;BME280;9680;52.520;13.332;2023-07-13T08:10:01;101116.03;;;24.70;44.12
19096;BME280;9680;52.520;13.332;2023-07-13T08:12:29;101123.50;;;24.77;43.94
19096;BME280;9680;52.520;13.332;2023-07-13T08:14:56;101128.69;;;24.88;43.49
19096;BME280;9680;52.520;13.332;2023-07-13T08:17:23;101119.25;;;25.04;43.54
19096;BME280;9680;52.520;13.332;2023-07-13T08:19:50;101120.44;;;25.29;42.93
19096;BME280;9680;52.520;13.332;2023-07-13T08:22:17;101123.22;;;25.27;42.42
19096;BME280;9680;52.520;13.332;2023-07-13T08:24:43;101122.84;;;25.22;42.85
19096;BME280;9680;52.520;13.332;2023-07-13T08:27:10;101120.72;;;25.26;42.06
19096;BME280;9680;52.520;13.332;2023-07-13T08:29:39;101126.06;;;25.26;41.71
19096;BME280;9680;52.520;13.332;2023-07-13T08:32:07;101127.47;;;25.20;41.73
19096;BME280;9680;52.520;13.332;2023-07-13T08:34:36;101128.38;;;25.49;40.54
19096;BME280;9680;52.520;13.332;2023-07-13T08:37:03;101127.66;;;25.56;40.22
19096;BME280;9680;52.520;13.332;2023-07-13T08:39:30;101137.63;;;25.44;40.04
19096;BME280;9680;52.520;13.332;2023-07-13T08:42:00;101140.88;;;25.38;40.60
19096;BME280;9680;52.520;13.332;2023-07-13T08:44:38;101134.09;;;25.44;40.71
19096;BME280;9680;52.520;13.332;2023-07-13T08:47:09;101131.31;;;25.55;40.74
19096;BME280;9680;52.520;13.332;2023-07-13T08:49:36;101134.97;;;25.54;40.29
19096;BME280;9680;52.520;13.332;2023-07-13T08:52:08;101137.38;;;25.48;40.43
19096;BME280;9680;52.520;13.332;2023-07-13T08:54:40;101131.63;;;25.33;40.60
19096;BME280;9680;52.520;13.332;2023-07-13T08:57:13;101133.41;;;25.04;40.80
19096;BME280;9680;52.520;13.332;2023-07-13T08:59:40;101141.13;;;24.97;40.86
19096;BME280;9680;52.520;13.332;2023-07-13T09:02:20;101126.16;;;24.86;41.00
19096;BME280;9680;52.520;13.332;2023-07-13T09:04:50;101134.81;;;24.98;41.32
19096;BME280;9680;52.520;13.332;2023-07-13T09:07:38;101131.03;;;25.39;40.96
19096;BME280;9680;52.520;13.332;2023-07-13T09:10:14;101142.09;;;25.44;41.16
19096;BME280;9680;52.520;13.332;2023-07-13T09:12:51;101137.00;;;25.23;39.77
19096;BME280;9680;52.520;13.332;2023-07-13T09:15:28;101127.53;;;25.00;40.23
19096;BME280;9680;52.520;13.332;2023-07-13T09:18:02;101141.13;;;24.97;39.83
19096;BME280;9680;52.520;13.332;2023-07-13T09:20:34;101133.56;;;25.03;40.01
19096;BME280;9680;52.520;13.332;2023-07-13T09:23:04;101135.06;;;25.15;39.96
19096;BME280;9680;52.520;13.332;2023-07-13T09:25:35;101126.66;;;25.20;39.56
19096;BME280;9680;52.520;13.332;2023-07-13T09:28:05;101130.28;;;25.19;39.68
19096;BME280;9680;52.520;13.332;2023-07-13T09:30:39;101126.50;;;25.11;39.06
19096;BME280;9680;52.520;13.332;2023-07-13T09:33:10;101144.44;;;25.19;38.92
19096;BME280;9680;52.520;13.332;2023-07-13T09:35:36;101132.38;;;25.25;38.10
19096;BME280;9680;52.520;13.332;2023-07-13T09:38:11;101131.13;;;25.09;37.29
19096;BME280;9680;52.520;13.332;2023-07-13T09:40:44;101129.16;;;25.21;36.66
19096;BME280;9680;52.520;13.332;2023-07-13T09:43:16;101138.63;;;25.34;36.10
19096;BME280;9680;52.520;13.332;2023-07-13T09:45:46;101136.44;;;25.19;36.75
19096;BME280;9680;52.520;13.332;2023-07-13T09:48:16;101139.72;;;25.03;37.83
19096;BME280;9680;52.520;13.332;2023-07-13T09:50:44;101140.50;;;25.23;37.93
19096;BME280;9680;52.520;13.332;2023-07-13T09:53:12;101135.56;;;25.38;37.79
19096;BME280;9680;52.520;13.332;2023-07-13T09:55:40;101133.78;;;25.67;37.50
19096;BME280;9680;52.520;13.332;2023-07-13T09:58:10;101128.56;;;25.93;37.42
19096;BME280;9680;52.520;13.332;2023-07-13T10:00:38;101122.53;;;26.19;36.79
19096;BME280;9680;52.520;13.332;2023-07-13T10:03:16;101122.28;;;26.49;36.39
19096;BME280;9680;52.520;13.332;2023-07-13T10:05:45;101121.72;;;26.63;35.76
19096;BME280;9680;52.520;13.332;2023-07-13T10:08:18;101122.28;;;26.85;35.72
19096;BME280;9680;52.520;13.332;2023-07-13T10:10:45;101111.19;;;27.06;35.75
19096;BME280;9680;52.520;13.332;2023-07-13T10:13:27;101115.53;;;27.33;35.04
19096;BME280;9680;52.520;13.332;2023-07-13T10:15:55;101111.81;;;27.61;34.82
19096;BME280;9680;52.520;13.332;2023-07-13T10:18:26;101123.63;;;27.85;33.90
19096;BME280;9680;52.520;13.332;2023-07-13T10:21:09;101118.06;;;27.70;32.78
19096;BME280;9680;52.520;13.332;2023-07-13T10:23:36;101114.75;;;27.84;33.47
19096;BME280;9680;52.520;13.332;2023-07-13T10:26:12;101112.06;;;27.93;32.78
19096;BME280;9680;52.520;13.332;2023-07-13T10:28:42;101115.44;;;28.11;32.79
19096;BME280;9680;52.520;13.332;2023-07-13T10:31:13;101115.84;;;28.33;32.83
19096;BME280;9680;52.520;13.332;2023-07-13T10:33:42;101110.50;;;28.41;32.94
19096;BME280;9680;52.520;13.332;2023-07-13T10:36:14;101124.91;;;28.32;32.52
19096;BME280;9680;52.520;13.332;2023-07-13T10:38:44;101121.47;;;28.05;33.23
19096;BME280;9680;52.520;13.332;2023-07-13T10:41:15;101126.16;;;28.03;33.57
19096;BME280;9680;52.520;13.332;2023-07-13T10:43:45;101134.00;;;27.88;33.15
19096;BME280;9680;52.520;13.332;2023-07-13T10:46:17;101121.41;;;27.80;33.33
19096;BME280;9680;52.520;13.332;2023-07-13T10:48:48;101118.75;;;27.80;32.88
19096;BME280;9680;52.520;13.332;2023-07-13T10:51:18;101128.44;;;27.81;32.80
19096;BME280;9680;52.520;13.332;2023-07-13T10:53:47;101118.56;;;27.82;33.16
19096;BME280;9680;52.520;13.332;2023-07-13T10:56:23;101114.09;;;27.99;33.11
19096;BME280;9680;52.520;13.332;2023-07-13T10:59:02;101111.25;;;27.92;33.11
19096;BME280;9680;52.520;13.332;2023-07-13T11:01:40;101110.09;;;28.03;32.67
19096;BME280;9680;52.520;13.332;2023-07-13T11:04:12;101112.72;;;27.78;32.31
19096;BME280;9680;52.520;13.332;2023-07-13T11:06:41;101107.31;;;27.61;32.48
19096;BME280;9680;52.520;13.332;2023-07-13T11:09:35;101117.56;;;27.40;33.15
19096;BME280;9680;52.520;13.332;2023-07-13T11:12:07;101124.09;;;27.45;32.57
19096;BME280;9680;52.520;13.332;2023-07-13T11:14:36;101117.84;;;27.63;32.66
19096;BME280;9680;52.520;13.332;2023-07-13T11:17:36;101104.97;;;27.58;32.34
19096;BME280;9680;52.520;13.332;2023-07-13T11:20:32;101114.78;;;27.50;32.83
19096;BME280;9680;52.520;13.332;2023-07-13T11:23:28;101119.34;;;27.23;32.57
19096;BME280;9680;52.520;13.332;2023-07-13T11:25:55;101112.72;;;27.09;33.07
19096;BME280;9680;52.520;13.332;2023-07-13T11:28:24;101107.88;;;27.12;32.68
19096;BME280;9680;52.520;13.332;2023-07-13T11:31:14;101109.03;;;27.36;32.15
19096;BME280;9680;52.520;13.332;2023-07-13T11:33:52;101118.69;;;27.29;30.96
19096;BME280;9680;52.520;13.332;2023-07-13T11:36:23;101120.88;;;27.07;31.07
19096;BME280;9680;52.520;13.332;2023-07-13T11:38:58;101105.28;;;26.94;31.55
19096;BME280;9680;52.520;13.332;2023-07-13T11:41:28;101111.69;;;27.01;31.28
19096;BME280;9680;52.520;13.332;2023-07-13T11:44:06;101119.00;;;27.26;31.47
19096;BME280;9680;52.520;13.332;2023-07-13T11:46:33;101114.41;;;27.44;30.77
19096;BME280;9680;52.520;13.332;2023-07-13T11:49:00;101114.78;;;27.50;31.08
19096;BME280;9680;52.520;13.332;2023-07-13T11:51:30;101120.69;;;27.27;30.90
19096;BME280;9680;52.520;13.332;2023-07-13T11:54:01;101123.16;;;26.94;31.41
19096;BME280;9680;52.520;13.332;2023-07-13T11:56:29;101122.78;;;26.88;31.42
19096;BME280;9680;52.520;13.332;2023-07-13T11:59:02;101104.97;;;26.97;31.58
19096;BME280;9680;52.520;13.332;2023-07-13T12:01:31;101114.72;;;27.07;31.63
19096;BME280;9680;52.520;13.332;2023-07-13T12:04:00;101122.94;;;27.13;31.31
19096;BME280;9680;52.520;13.332;2023-07-13T12:06:31;101118.28;;;26.89;31.56
19096;BME280;9680;52.520;13.332;2023-07-13T12:08:59;101111.97;;;26.72;32.12
19096;BME280;9680;52.520;13.332;2023-07-13T12:11:27;101118.13;;;26.72;32.37
19096;BME280;9680;52.520;13.332;2023-07-13T12:13:53;101109.75;;;26.85;32.43
19096;BME280;9680;52.520;13.332;2023-07-13T12:16:27;101106.81;;;26.97;32.24
19096;BME280;9680;52.520;13.332;2023-07-13T12:18:55;101101.94;;;26.92;32.32
19096;BME280;9680;52.520;13.332;2023-07-13T12:21:31;101112.63;;;26.74;33.09
19096;BME280;9680;52.520;13.332;2023-07-13T12:23:59;101120.84;;;26.81;32.52
19096;BME280;9680;52.520;13.332;2023-07-13T12:26:28;101112.47;;;26.94;32.41
19096;BME280;9680;52.520;13.332;2023-07-13T12:28:56;101106.22;;;27.11;31.59
19096;BME280;9680;52.520;13.332;2023-07-13T12:31:26;101105.34;;;27.02;31.65
19096;BME280;9680;52.520;13.332;2023-07-13T12:33:57;101101.09;;;26.92;31.88
19096;BME280;9680;52.520;13.332;2023-07-13T12:36:24;101106.50;;;26.82;31.70
19096;BME280;9680;52.520;13.332;2023-07-13T12:38:53;101103.09;;;26.89;31.45
19096;BME280;9680;52.520;13.332;2023-07-13T12:41:20;101113.16;;;26.78;30.79
19096;BME280;9680;52.520;13.332;2023-07-13T12:43:48;101107.13;;;26.75;30.79
19096;BME280;9680;52.520;13.332;2023-07-13T12:46:18;101114.81;;;26.79;30.71
19096;BME280;9680;52.520;13.332;2023-07-13T12:48:48;101109.44;;;26.70;30.93
19096;BME280;9680;52.520;13.332;2023-07-13T12:51:15;101109.22;;;26.64;31.16
19096;BME280;9680;52.520;13.332;2023-07-13T12:53:47;101102.16;;;26.81;31.35
19096;BME280;9680;52.520;13.332;2023-07-13T12:56:19;101107.34;;;26.82;31.58
19096;BME280;9680;52.520;13.332;2023-07-13T12:58:48;101108.53;;;26.62;31.91
19096;BME280;9680;52.520;13.332;2023-07-13T13:01:21;101104.19;;;26.60;32.21
19096;BME280;9680;52.520;13.332;2023-07-13T13:03:50;101114.09;;;26.68;32.09